Time;durP1;ratioP1;P1;durP2;ratioP2;P2;SDS_P1;SDS_P2;PMS_P1;PMS_P2;Temp;Humidity;BMP_temperature;BMP_pressure;BME280_temperature;BME280_humidity;BME280_pressure;Samples;Min_cycle;Max_cycle;Signal;HPM_P1;HPM_P2
2021/12/22 00:00:26;;;;;;;34.83;22.83;;;3.10;83.10;;;;;;5040913;28;20052;-79
2021/12/22 00:02:54;;;;;;;36.08;22.40;;;3.10;83.10;;;;;;5050647;28;20049;-80
2021/12/22 00:05:26;;;;;;;37.35;21.33;;;3.10;83.20;;;;;;5051780;28;20060;-80
2021/12/22 00:07:54;;;;;;;38.33;22.00;;;3.10;83.20;;;;;;5033474;28;20046;-79
2021/12/22 00:10:22;;;;;;;35.85;22.25;;;3.10;83.20;;;;;;5030505;28;20076;-79
2021/12/22 00:12:51;;;;;;;34.53;23.33;;;3.00;83.20;;;;;;5032081;28;20045;-80
2021/12/22 00:15:19;;;;;;;38.63;23.40;;;3.10;83.20;;;;;;5041353;28;20061;-80
2021/12/22 00:17:46;;;;;;;45.92;23.08;;;3.00;83.30;;;;;;5051891;28;20041;-80
2021/12/22 00:20:14;;;;;;;35.70;23.92;;;3.00;83.30;;;;;;5051019;28;20051;-79
2021/12/22 00:22:43;;;;;;;35.03;22.52;;;3.10;83.30;;;;;;5055209;28;20044;-79
2021/12/22 00:25:11;;;;;;;37.95;23.77;;;3.00;83.30;;;;;;5051216;28;20071;-80
2021/12/22 00:27:39;;;;;;;37.05;23.17;;;3.00;83.40;;;;;;5051921;28;20040;-79
2021/12/22 00:30:08;;;;;;;37.50;22.38;;;2.90;83.40;;;;;;5042904;28;20046;-79
2021/12/22 00:32:36;;;;;;;37.25;22.45;;;2.80;83.50;;;;;;5032042;28;20046;-79
2021/12/22 00:35:05;;;;;;;38.80;23.65;;;2.80;83.60;;;;;;5031831;28;20498;-80
2021/12/22 00:37:34;;;;;;;40.88;24.23;;;2.70;83.80;;;;;;5031827;28;20057;-80
2021/12/22 00:40:03;;;;;;;40.03;24.55;;;2.70;83.90;;;;;;5032515;28;20057;-80
2021/12/22 00:42:31;;;;;;;43.85;24.52;;;2.60;84.00;;;;;;5035506;28;20050;-80
2021/12/22 00:44:59;;;;;;;46.35;25.42;;;2.60;84.10;;;;;;5035223;28;20422;-80
2021/12/22 00:47:29;;;;;;;42.58;25.35;;;2.60;84.20;;;;;;5034140;28;20594;-80
2021/12/22 00:49:58;;;;;;;48.40;26.08;;;2.60;84.30;;;;;;5035573;28;20403;-80
2021/12/22 00:52:29;;;;;;;42.33;26.30;;;2.60;84.30;;;;;;5035487;28;20502;-80
2021/12/22 00:54:57;;;;;;;40.55;24.60;;;2.60;84.30;;;;;;5035168;28;20061;-80
2021/12/22 00:57:25;;;;;;;46.15;26.63;;;2.60;84.30;;;;;;5035199;28;20053;-80
2021/12/22 00:59:53;;;;;;;46.25;27.33;;;2.50;84.30;;;;;;5039528;28;20495;-80
2021/12/22 01:02:20;;;;;;;45.78;26.10;;;2.50;84.40;;;;;;5045710;28;20053;-80
2021/12/22 01:04:48;;;;;;;42.50;25.75;;;2.40;84.40;;;;;;5033969;28;20076;-80
2021/12/22 01:07:16;;;;;;;44.67;25.98;;;2.30;84.60;;;;;;5052569;28;20089;-80
2021/12/22 01:09:44;;;;;;;40.83;26.65;;;2.20;84.70;;;;;;5053692;28;20486;-80
2021/12/22 01:12:12;;;;;;;45.50;27.15;;;2.20;84.80;;;;;;5054801;28;20053;-80
2021/12/22 01:14:40;;;;;;;47.40;28.73;;;2.10;85.00;;;;;;5053330;28;20394;-80
2021/12/22 01:17:11;;;;;;;49.35;28.50;;;2.00;85.20;;;;;;5050605;28;20041;-80
2021/12/22 01:24:59;;;;;;;52.92;30.05;;;1.70;85.60;;;;;;5034367;28;20060;-80
2021/12/22 01:27:33;;;;;;;50.47;31.75;;;1.70;85.80;;;;;;5033397;28;20045;-80
2021/12/22 01:30:07;;;;;;;57.13;32.00;;;1.60;86.00;;;;;;5034365;28;20495;-80
2021/12/22 01:32:36;;;;;;;58.97;30.88;;;1.50;86.10;;;;;;5033320;28;20422;-80
2021/12/22 01:35:05;;;;;;;55.30;32.50;;;1.50;86.20;;;;;;5034445;28;20049;-79
2021/12/22 01:37:33;;;;;;;57.72;32.72;;;1.50;86.30;;;;;;5047222;28;20050;-79
2021/12/22 01:40:02;;;;;;;58.30;32.08;;;1.40;86.40;;;;;;5052891;28;20048;-80
2021/12/22 01:42:30;;;;;;;64.32;32.55;;;1.40;86.50;;;;;;5042677;28;20053;-80
2021/12/22 01:50:40;;;;;;;59.88;31.45;;;1.30;86.80;;;;;;5049303;28;20033;-80
2021/12/22 01:53:20;;;;;;;56.80;31.90;;;1.20;86.90;;;;;;5032429;28;20140;-79
2021/12/22 01:56:42;;;;;;;59.20;33.28;;;1.20;87.00;;;;;;5034252;28;20045;-80
2021/12/22 01:59:05;;;;;;;58.40;34.15;;;1.20;87.10;;;;;;5033118;28;20121;-80
2021/12/22 02:01:34;;;;;;;64.07;33.22;;;1.20;87.20;;;;;;5034051;28;20398;-80
2021/12/22 02:04:05;;;;;;;68.30;34.28;;;1.20;87.30;;;;;;5034318;28;20076;-80
2021/12/22 02:06:33;;;;;;;64.75;33.85;;;1.10;87.50;;;;;;5016170;28;20050;-79
2021/12/22 02:09:01;;;;;;;68.30;35.13;;;1.20;87.50;;;;;;5033947;28;20045;-80
2021/12/22 02:11:28;;;;;;;66.72;35.55;;;1.20;87.60;;;;;;5050314;28;20048;-80
2021/12/22 02:14:02;;;;;;;72.32;37.33;;;1.20;87.70;;;;;;5053327;28;20060;-79
2021/12/22 02:16:35;;;;;;;69.13;36.80;;;1.20;87.80;;;;;;5052405;28;20060;-79
2021/12/22 02:19:06;;;;;;;66.95;37.53;;;1.20;87.90;;;;;;5052285;28;20510;-80
2021/12/22 02:21:41;;;;;;;73.07;37.55;;;1.20;88.00;;;;;;5053690;28;20057;-79
2021/12/22 02:24:09;;;;;;;70.50;37.97;;;1.10;88.00;;;;;;5053605;28;20041;-80
2021/12/22 02:26:53;;;;;;;74.13;36.47;;;1.10;88.10;;;;;;5049154;28;20053;-79
2021/12/22 02:29:23;;;;;;;70.35;35.30;;;1.00;88.10;;;;;;5033457;28;20061;-80
2021/12/22 02:32:04;;;;;;;70.68;36.97;;;1.10;88.30;;;;;;5034024;28;20503;-79
2021/12/22 02:34:42;;;;;;;66.80;36.90;;;1.10;88.30;;;;;;5034034;28;20050;-80
2021/12/22 02:37:13;;;;;;;79.20;39.38;;;1.10;88.50;;;;;;5033103;28;20073;-80
2021/12/22 02:39:56;;;;;;;73.90;38.22;;;1.10;88.50;;;;;;5031958;28;20056;-80
2021/12/22 02:42:28;;;;;;;73.60;37.58;;;1.10;88.40;;;;;;5033079;28;20056;-80
2021/12/22 02:44:56;;;;;;;71.00;37.45;;;1.10;88.40;;;;;;5033239;28;20050;-80
2021/12/22 02:47:26;;;;;;;73.45;38.03;;;1.00;88.40;;;;;;5033030;28;20072;-80
2021/12/22 02:49:54;;;;;;;76.88;38.88;;;1.00;88.50;;;;;;5031726;28;20049;-80
2021/12/22 02:52:28;;;;;;;77.45;38.80;;;0.90;88.50;;;;;;5033107;28;20046;-80
2021/12/22 02:54:57;;;;;;;73.57;38.85;;;0.90;88.60;;;;;;5033066;28;20057;-80
2021/12/22 02:57:32;;;;;;;76.20;38.25;;;0.80;88.70;;;;;;5032737;28;20049;-79
2021/12/22 03:05:36;;;;;;;86.65;37.13;;;0.70;88.80;;;;;;5032926;28;20391;-78
2021/12/22 03:08:05;;;;;;;75.45;38.17;;;0.70;88.90;;;;;;5032878;28;20042;-78
2021/12/22 03:10:33;;;;;;;86.60;38.53;;;0.70;88.90;;;;;;5032623;28;20476;-80
2021/12/22 03:13:04;;;;;;;75.82;38.67;;;0.60;89.00;;;;;;5032724;28;20045;-79
2021/12/22 03:15:32;;;;;;;78.80;36.20;;;0.60;89.10;;;;;;5033460;28;20045;-79
2021/12/22 03:18:00;;;;;;;75.60;38.17;;;0.50;89.20;;;;;;5052405;28;20040;-78
2021/12/22 03:20:27;;;;;;;77.82;37.88;;;0.50;89.20;;;;;;5052206;28;20037;-78
2021/12/22 03:22:55;;;;;;;82.40;39.70;;;0.40;89.20;;;;;;5051465;28;20052;-78
2021/12/22 03:25:26;;;;;;;75.65;38.85;;;0.40;89.30;;;;;;5051173;28;20494;-79
2021/12/22 03:27:57;;;;;;;81.35;39.20;;;0.40;89.30;;;;;;5052734;28;20048;-79
2021/12/22 03:30:26;;;;;;;86.07;38.28;;;0.30;89.30;;;;;;5052645;28;20076;-78
2021/12/22 03:32:54;;;;;;;80.57;37.22;;;0.30;89.40;;;;;;5044009;28;20048;-79
2021/12/22 03:35:22;;;;;;;83.00;38.05;;;0.30;89.50;;;;;;5032268;28;20052;-78
2021/12/22 03:37:54;;;;;;;85.13;39.30;;;0.20;89.60;;;;;;5032496;28;20064;-78
2021/12/22 03:40:24;;;;;;;91.57;38.75;;;0.20;89.60;;;;;;5032049;28;20045;-79
2021/12/22 03:42:51;;;;;;;84.90;39.58;;;0.20;89.70;;;;;;5030484;28;20060;-79
2021/12/22 03:45:20;;;;;;;83.60;38.03;;;0.20;89.70;;;;;;5031756;28;20049;-79
2021/12/22 03:47:48;;;;;;;85.72;37.47;;;0.20;89.80;;;;;;5032303;28;20628;-79
2021/12/22 03:50:18;;;;;;;81.75;36.55;;;0.20;89.90;;;;;;5032632;28;20381;-79
2021/12/22 03:52:47;;;;;;;77.80;37.20;;;0.30;89.80;;;;;;5031832;28;20049;-78
2021/12/22 03:55:15;;;;;;;78.82;34.35;;;0.30;89.90;;;;;;5030303;28;20045;-79
2021/12/22 03:57:43;;;;;;;77.03;34.13;;;0.30;89.90;;;;;;5030443;28;20068;-79
2021/12/22 04:00:13;;;;;;;83.10;34.65;;;0.40;89.90;;;;;;5030979;28;20073;-79
2021/12/22 04:02:40;;;;;;;72.60;32.55;;;0.40;89.80;;;;;;5045601;28;20538;-79
2021/12/22 04:05:09;;;;;;;75.00;32.67;;;0.30;89.90;;;;;;5052171;28;20053;-79
2021/12/22 04:07:36;;;;;;;69.20;32.85;;;0.40;89.80;;;;;;5036383;28;20132;-79
2021/12/22 04:10:19;;;;;;;61.90;31.30;;;0.40;89.80;;;;;;5052253;28;20037;-79
2021/12/22 04:12:53;;;;;;;63.35;31.98;;;0.40;89.80;;;;;;5052484;28;20135;-78
2021/12/22 04:15:23;;;;;;;70.43;31.63;;;0.30;89.70;;;;;;5056201;28;20056;-78
2021/12/22 04:17:51;;;;;;;65.25;29.08;;;0.30;89.70;;;;;;5041767;28;20050;-78
2021/12/22 04:20:19;;;;;;;56.05;27.95;;;0.30;89.70;;;;;;5036071;28;20526;-78
2021/12/22 04:22:46;;;;;;;59.20;27.83;;;0.30;89.70;;;;;;5034657;28;20057;-78
2021/12/22 04:25:21;;;;;;;58.28;27.48;;;0.30;89.70;;;;;;5034857;28;20045;-78
2021/12/22 04:27:51;;;;;;;57.30;27.08;;;0.30;89.60;;;;;;5035945;28;20056;-79
2021/12/22 04:30:20;;;;;;;55.90;26.20;;;0.30;89.60;;;;;;5035869;28;20049;-78
2021/12/22 04:32:48;;;;;;;57.05;26.35;;;0.30;89.60;;;;;;5035477;28;20057;-78
2021/12/22 04:35:16;;;;;;;66.28;27.65;;;0.40;89.60;;;;;;5036445;28;20049;-78
2021/12/22 04:37:44;;;;;;;65.30;27.80;;;0.40;89.50;;;;;;5050827;28;20044;-78
2021/12/22 04:40:12;;;;;;;56.08;26.85;;;0.40;89.40;;;;;;5054311;28;20057;-78
2021/12/22 04:42:39;;;;;;;58.67;25.70;;;0.50;89.40;;;;;;5053214;28;20052;-79
2021/12/22 04:45:08;;;;;;;57.42;25.67;;;0.50;89.40;;;;;;5034409;28;20396;-79
2021/12/22 04:47:37;;;;;;;58.42;26.13;;;0.50;89.30;;;;;;5034114;28;20054;-79
2021/12/22 04:50:10;;;;;;;63.80;26.48;;;0.50;89.20;;;;;;5034334;28;20060;-79
2021/12/22 04:52:45;;;;;;;53.40;25.52;;;0.50;89.20;;;;;;5036165;28;20049;-80
2021/12/22 04:55:13;;;;;;;53.00;24.98;;;0.50;89.20;;;;;;5051725;28;20406;-79
2021/12/22 04:57:41;;;;;;;60.65;25.33;;;0.50;89.10;;;;;;5052739;28;20057;-79
2021/12/22 05:00:11;;;;;;;59.15;26.13;;;0.50;89.10;;;;;;5055050;28;20045;-80
2021/12/22 05:02:38;;;;;;;61.88;26.73;;;0.50;89.20;;;;;;5055336;28;20049;-79
2021/12/22 05:05:07;;;;;;;61.28;27.25;;;0.40;89.20;;;;;;5053916;28;20041;-79
2021/12/22 05:07:35;;;;;;;57.88;26.27;;;0.30;89.20;;;;;;5053788;28;20051;-79
2021/12/22 05:10:03;;;;;;;58.45;26.30;;;0.40;89.30;;;;;;5054699;28;20045;-79
2021/12/22 05:12:31;;;;;;;59.88;24.23;;;0.30;89.30;;;;;;5050563;28;20459;-79
2021/12/22 05:14:59;;;;;;;61.60;26.65;;;0.30;89.30;;;;;;5053628;28;20048;-79
2021/12/22 05:17:50;;;;;;;53.80;26.42;;;0.30;89.30;;;;;;5054908;28;20049;-79
2021/12/22 05:20:16;;;;;;;53.80;25.20;;;0.30;89.30;;;;;;5053311;28;20045;-79
2021/12/22 05:22:44;;;;;;;55.53;25.40;;;0.30;89.30;;;;;;5053574;28;20494;-79
2021/12/22 05:25:12;;;;;;;64.00;25.40;;;0.30;89.30;;;;;;5052847;28;20068;-79
2021/12/22 05:27:41;;;;;;;55.22;24.55;;;0.30;89.30;;;;;;5048047;28;20042;-79
2021/12/22 05:30:11;;;;;;;58.00;25.38;;;0.40;89.30;;;;;;5034636;28;20049;-79
2021/12/22 05:32:40;;;;;;;52.30;23.77;;;0.40;89.20;;;;;;5033562;28;20049;-79
2021/12/22 05:35:10;;;;;;;51.42;23.17;;;0.40;89.20;;;;;;5017350;28;20041;-79
2021/12/22 05:37:38;;;;;;;57.72;23.83;;;0.40;89.20;;;;;;5034569;28;20064;-79
2021/12/22 05:40:08;;;;;;;56.78;23.02;;;0.50;89.20;;;;;;5033424;28;20437;-79
2021/12/22 05:42:35;;;;;;;56.17;24.35;;;0.50;89.20;;;;;;5039984;28;20033;-79
2021/12/22 05:45:04;;;;;;;52.53;23.75;;;0.40;89.10;;;;;;5054165;28;20057;-80
2021/12/22 05:47:32;;;;;;;52.95;23.80;;;0.50;89.20;;;;;;5053160;28;20067;-79
2021/12/22 05:50:03;;;;;;;52.88;23.90;;;0.40;89.20;;;;;;5054330;28;20045;-79
2021/12/22 05:52:30;;;;;;;54.75;22.60;;;0.40;89.20;;;;;;5053088;28;20506;-79
2021/12/22 05:54:58;;;;;;;47.35;22.08;;;0.50;89.20;;;;;;5042813;28;20046;-79
2021/12/22 05:57:25;;;;;;;50.63;23.45;;;0.40;89.20;;;;;;5033183;28;20046;-79
2021/12/22 05:59:53;;;;;;;53.88;24.98;;;0.50;89.20;;;;;;5032869;28;20053;-79
2021/12/22 06:02:21;;;;;;;48.05;22.10;;;0.50;89.20;;;;;;5033050;28;20042;-80
2021/12/22 06:04:49;;;;;;;55.63;23.45;;;0.50;89.10;;;;;;5034162;28;20049;-79
2021/12/22 06:07:16;;;;;;;58.47;23.00;;;0.60;89.10;;;;;;5033151;28;20091;-79
2021/12/22 06:09:44;;;;;;;51.65;22.23;;;0.60;89.10;;;;;;5016480;28;20112;-79
2021/12/22 06:12:11;;;;;;;53.72;22.23;;;0.70;89.00;;;;;;5036454;28;20514;-79
2021/12/22 06:14:39;;;;;;;52.40;23.40;;;0.70;89.00;;;;;;5032253;28;20050;-80
2021/12/22 06:17:06;;;;;;;56.53;23.05;;;0.70;89.00;;;;;;5033907;28;20045;-79
2021/12/22 06:19:34;;;;;;;51.30;23.15;;;0.70;89.00;;;;;;5053806;28;20052;-80
2021/12/22 06:22:02;;;;;;;58.75;23.25;;;0.70;89.00;;;;;;5053740;28;20051;-79
2021/12/22 06:24:30;;;;;;;57.47;23.95;;;0.70;89.00;;;;;;5052527;28;20115;-79
2021/12/22 06:26:58;;;;;;;59.17;22.83;;;0.70;89.00;;;;;;5051956;28;20048;-79
2021/12/22 06:29:25;;;;;;;54.20;23.08;;;0.70;89.00;;;;;;5053541;28;20050;-79
2021/12/22 06:31:53;;;;;;;54.20;24.10;;;0.60;89.00;;;;;;5032168;28;20057;-79
2021/12/22 06:34:21;;;;;;;51.90;23.85;;;0.60;89.10;;;;;;5033937;28;20510;-79
2021/12/22 06:36:49;;;;;;;54.90;23.63;;;0.60;89.10;;;;;;5033682;28;20053;-79
2021/12/22 06:39:18;;;;;;;53.03;23.67;;;0.60;89.20;;;;;;5032024;28;20053;-79
2021/12/22 06:41:47;;;;;;;56.22;24.73;;;0.60;89.20;;;;;;5015530;28;20503;-79
2021/12/22 06:44:15;;;;;;;57.35;24.05;;;0.60;89.30;;;;;;5033576;28;20054;-79
2021/12/22 06:46:43;;;;;;;58.13;24.70;;;0.60;89.30;;;;;;5034101;28;20053;-79
2021/12/22 06:49:11;;;;;;;63.60;26.25;;;0.60;89.30;;;;;;5033526;28;20054;-79
2021/12/22 06:51:39;;;;;;;56.13;24.77;;;0.60;89.30;;;;;;5033690;28;20041;-79
2021/12/22 06:54:07;;;;;;;57.78;24.23;;;0.60;89.30;;;;;;5032112;28;20053;-79
2021/12/22 06:56:35;;;;;;;60.00;24.73;;;0.60;89.30;;;;;;5033054;28;20053;-79
2021/12/22 06:59:03;;;;;;;56.35;22.98;;;0.60;89.30;;;;;;5033200;28;20053;-79
2021/12/22 07:01:33;;;;;;;56.22;24.30;;;0.50;89.30;;;;;;5039135;28;20052;-78
2021/12/22 07:04:02;;;;;;;58.75;24.25;;;0.50;89.40;;;;;;5039657;28;20053;-78
2021/12/22 07:06:31;;;;;;;52.97;24.08;;;0.50;89.40;;;;;;5031770;28;20045;-79
2021/12/22 07:08:59;;;;;;;61.63;24.45;;;0.50;89.50;;;;;;5032877;28;20045;-81
2021/12/22 07:11:27;;;;;;;60.97;23.75;;;0.50;89.50;;;;;;5031432;28;20045;-79
2021/12/22 07:13:55;;;;;;;60.20;24.45;;;0.50;89.60;;;;;;5031658;28;20442;-79
2021/12/22 07:16:22;;;;;;;63.75;24.55;;;0.50;89.70;;;;;;5015079;28;20048;-78
2021/12/22 07:18:53;;;;;;;59.30;23.42;;;0.50;89.70;;;;;;5037986;28;20639;-79
2021/12/22 07:21:20;;;;;;;56.88;23.30;;;0.50;89.80;;;;;;5051093;28;20060;-79
2021/12/22 07:23:48;;;;;;;63.67;23.00;;;0.50;89.90;;;;;;5052746;28;20064;-79
2021/12/22 07:26:16;;;;;;;57.92;22.55;;;0.50;90.00;;;;;;5052136;28;20049;-79
2021/12/22 07:28:48;;;;;;;57.50;23.13;;;0.50;90.00;;;;;;5051629;28;20055;-79
2021/12/22 07:31:16;;;;;;;54.85;23.00;;;0.60;90.00;;;;;;5047618;28;20045;-79
2021/12/22 07:33:52;;;;;;;49.35;21.58;;;0.60;90.10;;;;;;5032954;28;20483;-80
2021/12/22 07:36:19;;;;;;;54.35;21.75;;;0.60;90.00;;;;;;5053558;28;20049;-80
2021/12/22 07:38:55;;;;;;;59.42;21.77;;;0.60;90.10;;;;;;5050758;28;20387;-80
2021/12/22 07:41:23;;;;;;;56.05;21.65;;;0.60;90.10;;;;;;5050943;28;20078;-80
2021/12/22 07:43:51;;;;;;;54.00;21.48;;;0.70;90.10;;;;;;5052226;28;20068;-79
2021/12/22 07:46:18;;;;;;;51.75;21.17;;;0.70;90.20;;;;;;5049456;28;20053;-79
2021/12/22 07:48:46;;;;;;;56.35;21.65;;;0.70;90.20;;;;;;5032347;28;20056;-79
2021/12/22 07:51:14;;;;;;;57.30;22.15;;;0.70;90.20;;;;;;5032373;28;20053;-79
2021/12/22 07:53:42;;;;;;;50.28;21.02;;;0.70;90.10;;;;;;5031123;28;20505;-79
2021/12/22 07:56:09;;;;;;;52.10;21.05;;;0.70;90.20;;;;;;5032133;28;20053;-79
2021/12/22 07:58:37;;;;;;;53.80;22.58;;;0.70;90.20;;;;;;5041130;28;20041;-79
2021/12/22 08:01:05;;;;;;;49.00;20.20;;;0.70;90.30;;;;;;5052186;28;20052;-79
2021/12/22 08:03:32;;;;;;;53.17;22.55;;;0.80;90.30;;;;;;5052249;28;20052;-78
2021/12/22 08:06:10;;;;;;;44.83;19.95;;;0.80;90.30;;;;;;5051740;28;20049;-79
2021/12/22 08:08:37;;;;;;;53.20;21.02;;;0.80;90.30;;;;;;5047762;28;20053;-79
2021/12/22 08:11:05;;;;;;;50.75;21.25;;;0.80;90.30;;;;;;5052040;28;20064;-79
2021/12/22 08:13:34;;;;;;;51.08;20.50;;;0.80;90.30;;;;;;5052133;28;20056;-79
2021/12/22 08:16:03;;;;;;;49.40;19.90;;;0.80;90.30;;;;;;5051935;28;20510;-79
2021/12/22 08:18:31;;;;;;;64.07;21.83;;;0.80;90.30;;;;;;5051985;28;20513;-79
2021/12/22 08:20:58;;;;;;;56.85;22.13;;;0.80;90.30;;;;;;5052116;28;20041;-80
2021/12/22 08:23:31;;;;;;;53.25;20.77;;;0.90;90.30;;;;;;5034272;28;20513;-79
2021/12/22 08:25:59;;;;;;;53.28;22.20;;;0.90;90.30;;;;;;5052182;28;20048;-79
2021/12/22 08:28:27;;;;;;;49.35;21.10;;;0.90;90.30;;;;;;5042917;28;20049;-79
2021/12/22 08:30:54;;;;;;;55.20;21.63;;;0.90;90.30;;;;;;5032085;28;20049;-79
2021/12/22 08:33:25;;;;;;;60.15;22.63;;;1.00;90.30;;;;;;5038034;28;20045;-79
2021/12/22 08:38:51;;;;;;;54.85;22.08;;;1.00;90.30;;;;;;5050254;28;20064;-79
2021/12/22 08:41:30;;;;;;;50.88;20.98;;;1.10;90.20;;;;;;5050379;28;20048;-79
2021/12/22 08:44:01;;;;;;;52.85;21.52;;;1.10;90.20;;;;;;5051674;28;20049;-79
2021/12/22 08:46:29;;;;;;;44.10;20.52;;;1.20;90.20;;;;;;5050396;28;20376;-79
2021/12/22 08:48:58;;;;;;;57.53;22.58;;;1.20;90.10;;;;;;5050076;28;20060;-79
2021/12/22 08:51:25;;;;;;;54.28;22.70;;;1.20;90.10;;;;;;5037766;28;20045;-78
2021/12/22 08:53:54;;;;;;;48.75;20.52;;;1.30;90.10;;;;;;5031560;28;20060;-78
2021/12/22 08:56:22;;;;;;;52.63;21.20;;;1.30;90.10;;;;;;5031683;28;20057;-79
2021/12/22 08:58:50;;;;;;;49.28;21.95;;;1.30;90.00;;;;;;5031577;28;20037;-79
2021/12/22 09:01:18;;;;;;;50.00;21.60;;;1.30;90.00;;;;;;5034316;28;20363;-79
2021/12/22 09:03:46;;;;;;;47.03;20.52;;;1.30;89.90;;;;;;5035382;28;20059;-80
2021/12/22 09:06:15;;;;;;;45.90;19.65;;;1.30;89.90;;;;;;5045340;28;20079;-80
2021/12/22 09:08:43;;;;;;;44.92;19.15;;;1.30;89.90;;;;;;5055068;28;20506;-80
2021/12/22 09:11:12;;;;;;;44.83;19.88;;;1.40;89.90;;;;;;5053933;28;20052;-79
2021/12/22 09:13:40;;;;;;;48.50;20.25;;;1.40;89.90;;;;;;5052156;28;20514;-80
2021/12/22 09:16:08;;;;;;;48.38;19.58;;;1.50;89.90;;;;;;5054887;28;20056;-79
2021/12/22 09:18:37;;;;;;;51.35;20.85;;;1.50;89.90;;;;;;5055093;28;20488;-80
2021/12/22 09:21:06;;;;;;;45.53;20.10;;;1.60;89.80;;;;;;5053533;28;20064;-80
2021/12/22 09:23:34;;;;;;;42.95;20.20;;;1.70;89.80;;;;;;5053616;28;20052;-80
2021/12/22 09:26:03;;;;;;;46.00;20.05;;;1.70;89.70;;;;;;5033449;28;20426;-80
2021/12/22 09:28:30;;;;;;;42.40;19.55;;;1.80;89.70;;;;;;5034839;28;20394;-80
2021/12/22 09:30:58;;;;;;;44.95;19.08;;;1.80;89.60;;;;;;5034786;28;20049;-79
2021/12/22 09:33:26;;;;;;;46.75;20.00;;;1.80;89.60;;;;;;5049855;28;20094;-79
2021/12/22 09:35:55;;;;;;;44.90;19.60;;;1.80;89.50;;;;;;5054343;28;20057;-80
2021/12/22 09:38:22;;;;;;;45.97;19.95;;;1.90;89.50;;;;;;5054771;28;20064;-80
2021/12/22 09:40:50;;;;;;;46.70;19.08;;;1.90;89.50;;;;;;5054363;28;20064;-80
2021/12/22 09:43:18;;;;;;;46.75;19.73;;;1.90;89.50;;;;;;5041705;28;20049;-80
2021/12/22 09:45:51;;;;;;;47.67;20.23;;;2.00;89.40;;;;;;5033568;28;20046;-80
2021/12/22 09:48:31;;;;;;;44.72;20.83;;;1.90;89.30;;;;;;5033203;28;20045;-80
2021/12/22 09:53:29;;;;;;;45.15;20.55;;;2.00;89.30;;;;;;5033178;28;20041;-80
2021/12/22 09:55:58;;;;;;;50.58;21.27;;;2.00;89.30;;;;;;5034489;28;20502;-80
2021/12/22 09:58:27;;;;;;;48.55;20.88;;;2.00;89.30;;;;;;5016759;28;20053;-80
2021/12/22 10:00:56;;;;;;;47.80;20.88;;;2.00;89.20;;;;;;5034150;28;20053;-80
2021/12/22 10:03:25;;;;;;;49.80;21.17;;;2.10;89.20;;;;;;5050804;28;20532;-80
2021/12/22 10:05:53;;;;;;;46.20;19.55;;;2.10;89.20;;;;;;5054856;28;20056;-79
2021/12/22 10:08:23;;;;;;;50.90;21.23;;;2.10;89.20;;;;;;5070696;28;20553;-80
2021/12/22 10:11:12;;;;;;;42.80;19.60;;;2.10;89.20;;;;;;5054180;28;20052;-81
2021/12/22 10:13:44;;;;;;;45.55;20.27;;;2.10;89.20;;;;;;5037537;28;20049;-79
2021/12/22 10:16:22;;;;;;;44.80;20.30;;;2.10;89.10;;;;;;5052988;28;20045;-80
2021/12/22 10:19:09;;;;;;;48.45;19.30;;;2.10;89.00;;;;;;5051918;28;20052;-79
2021/12/22 10:21:51;;;;;;;38.88;19.15;;;2.10;89.00;;;;;;5046476;28;20056;-80
2021/12/22 10:24:22;;;;;;;42.25;18.67;;;2.20;89.00;;;;;;5034463;28;20053;-80
2021/12/22 10:27:02;;;;;;;39.10;18.75;;;2.20;88.80;;;;;;5034162;28;20521;-80
2021/12/22 10:29:31;;;;;;;37.20;18.00;;;2.20;88.80;;;;;;5032693;28;20045;-80
2021/12/22 10:32:14;;;;;;;48.53;19.98;;;2.20;88.70;;;;;;5033608;28;20500;-79
2021/12/22 10:35:17;;;;;;;44.22;18.90;;;2.20;88.70;;;;;;5033511;28;20060;-79
2021/12/22 10:37:45;;;;;;;47.33;19.33;;;2.20;88.70;;;;;;5052552;28;20044;-84
2021/12/22 10:40:29;;;;;;;43.30;18.45;;;2.20;88.60;;;;;;5071919;28;20533;-79
2021/12/22 10:42:57;;;;;;;45.20;19.30;;;2.20;88.60;;;;;;5090569;28;20056;-80
2021/12/22 10:45:28;;;;;;;46.33;18.83;;;2.20;88.60;;;;;;5090460;28;20048;-80
2021/12/22 10:50:50;;;;;;;47.20;18.83;;;2.20;88.60;;;;;;5090459;28;20078;-80
2021/12/22 10:53:18;;;;;;;36.92;18.42;;;2.20;88.60;;;;;;5034303;28;20048;-80
2021/12/22 10:55:50;;;;;;;42.28;18.50;;;2.20;88.60;;;;;;5050432;28;20061;-81
2021/12/22 10:58:26;;;;;;;42.67;19.05;;;2.20;88.50;;;;;;5034097;28;20056;-79
2021/12/22 11:01:05;;;;;;;44.88;19.27;;;2.20;88.50;;;;;;5050814;28;20057;-79
2021/12/22 11:03:48;;;;;;;40.00;18.42;;;2.20;88.50;;;;;;5050541;28;20045;-79
2021/12/22 11:06:21;;;;;;;44.35;19.13;;;2.30;88.50;;;;;;5051736;28;20052;-80
2021/12/22 11:08:53;;;;;;;50.28;19.77;;;2.30;88.50;;;;;;5050333;28;20068;-79
2021/12/22 11:11:21;;;;;;;43.72;19.77;;;2.30;88.50;;;;;;5031188;28;20048;-79
2021/12/22 11:14:02;;;;;;;41.08;19.27;;;2.30;88.40;;;;;;5031578;28;20053;-80
2021/12/22 11:16:30;;;;;;;37.38;18.60;;;2.30;88.30;;;;;;5049737;28;20048;-80
2021/12/22 11:19:18;;;;;;;40.00;17.65;;;2.40;88.30;;;;;;5051597;28;20041;-80
2021/12/22 11:22:03;;;;;;;43.13;16.77;;;2.40;88.40;;;;;;5046078;28;20041;-80
2021/12/22 11:24:34;;;;;;;49.42;17.95;;;2.40;88.30;;;;;;5032331;28;20045;-79
2021/12/22 11:27:04;;;;;;;33.53;16.45;;;2.40;88.30;;;;;;5031553;28;20049;-80
2021/12/22 11:29:33;;;;;;;39.00;16.50;;;2.40;88.20;;;;;;5032780;28;20053;-79
2021/12/22 11:32:04;;;;;;;36.20;17.10;;;2.40;88.20;;;;;;5048460;28;20053;-80
2021/12/22 11:34:36;;;;;;;40.35;17.50;;;2.40;88.20;;;;;;5032645;28;20041;-80
2021/12/22 11:37:07;;;;;;;30.65;15.05;;;2.40;88.10;;;;;;5014969;28;20049;-81
2021/12/22 11:39:35;;;;;;;35.28;14.93;;;2.50;88.20;;;;;;5032622;28;20048;-83
2021/12/22 11:42:07;;;;;;;33.42;14.57;;;2.50;88.10;;;;;;5032810;28;20045;-80
2021/12/22 11:44:36;;;;;;;;;;;2.50;87.80;;;;;;5039321;28;20049;-81
2021/12/22 11:47:08;;;;;;;31.63;13.30;;;2.50;87.70;;;;;;5040109;28;19920;-80
2021/12/22 11:49:55;;;;;;;40.20;15.27;;;2.50;87.70;;;;;;5013348;28;20041;-79
2021/12/22 11:52:51;;;;;;;33.47;14.80;;;2.50;87.60;;;;;;5030144;28;20495;-79
2021/12/22 11:55:24;;;;;;;35.38;15.00;;;2.50;87.50;;;;;;5039610;28;20041;-79
2021/12/22 11:58:12;;;;;;;;;;;2.50;87.40;;;;;;5051835;28;20060;-79
2021/12/22 12:00:50;;;;;;;30.95;14.38;;;2.60;87.40;;;;;;5051403;28;20401;-79
2021/12/22 12:03:30;;;;;;;31.63;13.93;;;2.60;87.40;;;;;;5051690;28;20048;-79
2021/12/22 12:06:00;;;;;;;27.35;13.98;;;2.60;87.40;;;;;;5049512;28;20048;-79
2021/12/22 12:08:53;;;;;;;35.40;14.68;;;2.60;87.40;;;;;;5030959;28;20057;-79
2021/12/22 12:11:34;;;;;;;33.17;14.63;;;2.60;87.40;;;;;;5031649;28;20376;-79
2021/12/22 12:14:08;;;;;;;29.65;13.63;;;2.60;87.40;;;;;;5032576;28;20073;-80
2021/12/22 12:22:25;;;;;;;;;;;2.60;87.40;;;;;;5051596;28;20041;-80
2021/12/22 12:25:05;;;;;;;37.45;14.57;;;2.70;87.50;;;;;;5034457;28;19921;-79
2021/12/22 12:27:42;;;;;;;29.25;15.20;;;2.70;87.60;;;;;;5052226;28;20049;-79
2021/12/22 12:30:28;;;;;;;30.35;13.50;;;2.70;87.70;;;;;;5050701;28;20406;-79
2021/12/22 12:33:01;;;;;;;26.83;12.80;;;2.70;87.80;;;;;;5048428;28;20052;-80
2021/12/22 12:35:32;;;;;;;30.70;13.02;;;2.70;87.90;;;;;;5071103;28;20064;-80
2021/12/22 12:38:30;;;;;;;37.28;13.95;;;2.70;87.90;;;;;;5055638;28;20045;-79
2021/12/22 12:40:57;;;;;;;28.00;14.20;;;2.70;87.90;;;;;;5055561;28;20806;-79
2021/12/22 12:46:20;;;;;;;29.70;13.88;;;2.70;88.00;;;;;;5035377;28;20407;-78
2021/12/22 12:48:53;;;;;;;34.30;15.20;;;2.70;88.10;;;;;;5035899;28;20057;-78
2021/12/22 12:51:26;;;;;;;30.50;14.55;;;2.70;88.10;;;;;;5035385;28;20411;-79
2021/12/22 12:53:57;;;;;;;34.50;13.80;;;2.70;88.20;;;;;;5035763;28;20046;-79
2021/12/22 12:56:38;;;;;;;30.92;15.18;;;2.70;88.20;;;;;;5034200;28;20053;-78
2021/12/22 12:59:13;;;;;;;33.17;14.93;;;2.70;88.30;;;;;;5041504;28;20049;-78
2021/12/22 13:01:46;;;;;;;32.53;14.05;;;2.70;88.30;;;;;;5037489;28;20454;-78
2021/12/22 13:04:32;;;;;;;35.10;13.95;;;2.70;88.30;;;;;;5034298;28;20049;-78
2021/12/22 13:07:15;;;;;;;32.92;14.00;;;2.80;88.30;;;;;;5036227;28;20053;-78
2021/12/22 13:10:00;;;;;;;29.48;12.68;;;2.80;88.30;;;;;;5017867;28;20056;-78
2021/12/22 13:12:46;;;;;;;24.17;12.45;;;2.80;88.10;;;;;;5035855;28;20057;-79
2021/12/22 13:18:28;;;;;;;25.15;12.65;;;2.90;88.10;;;;;;5033876;28;20050;-78
2021/12/22 13:21:00;;;;;;;24.30;12.93;;;3.00;88.00;;;;;;5034965;28;20522;-79
2021/12/22 13:23:31;;;;;;;27.50;12.15;;;3.00;88.00;;;;;;5037288;28;20063;-79
2021/12/22 13:26:00;;;;;;;29.17;13.43;;;3.00;87.90;;;;;;5053605;28;20092;-79
2021/12/22 13:28:31;;;;;;;25.48;12.15;;;3.00;87.90;;;;;;5054749;28;20506;-79
2021/12/22 13:31:02;;;;;;;24.38;12.05;;;3.00;87.90;;;;;;5054823;28;20052;-79
2021/12/22 13:33:33;;;;;;;25.42;12.68;;;3.00;87.90;;;;;;5053135;28;20041;-79